My Meet Scores
Adana Amor, Naperville Gymnastics Club - MyMeetScores.com
Top100 | Top Teams | Upcoming Meets | Completed Meets | Latest | Add Scores | Help| Support | Bookmark and Share

Adana Amor, Naperville Gymnastics Club
Personal Bests
LevelVault BarsBeamFloorAA
48.9009.400 9.0509.27536.625
59.2259.500 9.3759.55037.600
79.6009.475 9.4759.55037.600
89.5009.650 9.5509.45037.500
99.0758.650 8.6759.35035.150
109.5009.250 9.2009.02535.800
Meet Scores
Date Meet Team Session Level Division Vault Bars Beam Floor AA
2019-04-11 Region 5 9/10 Championships Naperville Gymnastics Club 03 10 Sr D 0.000 22 1.000 21 0.000 22 0.000 21T 1.000 22
2019-03-01 NGCD Academy's 2019 Flip'r Invitational Naperville Gymnastics Club 7 10 Sr B 9.500 4 9.225 4T 8.075 9 9.000 5 35.800 5
2019-02-01 Buckeye Classic Naperville Gymnastics Club SC1 10 D 8.575 6 8.300 5 7.800 10 8.800 6 33.475 6
2019-01-11 St Jude Benefit Meet Naperville Gymnastics Club 6B 10 Sr A 8.900 12 8.400 6T 9.200 3 7.675 15 34.175 9
2018-02-23 Kinetic Classic Naperville Gymnastics Club 3 10 Older 0.000 43T 9.250 13 9.150 10T 7.950 45 26.350 41
2018-02-07 Brestyans Las Vegas Invitational Naperville Gymnastics Club 06B 10 SR A 8.450 6 7.400 6 8.300 4 8.325 5 32.475 5
2018-01-19 2018 Bravo Classic Naperville Gymnastics Club 7A 10 Jr 0.000 10T 8.600 5T 9.150 3 0.000 11 17.750 10
2017-01-07 2017 Flip'r Invitational Naperville Gymnastics Club 10 Lvl 10: All 0.000 6 0.000 6 0.000 6 0.000 6 0.000 6
2016-03-18 2016 Illinois Level 8, 9, 10 State Championships Naperville Gymnastics Club 05 10 10 Jr B 0.000 17 0.000 17T 7.425 17 0.000 17T 7.425 17
2016-02-05 World Class Gateway Challenge Naperville Gymnastics Club 4A 10 Sr.A 8.400 8 8.025 5 8.500 6 8.800 4T 33.725 5
2016-01-30 2016 Flip'R Invitational Naperville Gymnastics Club 3 10 All 7.300 4 8.100 3 6.950 3 9.025 2 31.375 3
2015-04-17 2015 Region 5 Level 9, 10 Championships Naperville Gymnastics Club 09 9 Junior 4 8.100 22 0.000 22 8.675 19 9.350 12T 26.125 22
2015-02-13 IGI Chicago Style Gymnastics Meet Naperville Gymnastics Club 222 9 13 & young 9.075 10T 5.650 21 8.575 12 9.225 6T 32.525 17
2015-01-30 World Class Gateway Challenge 2015 Naperville Gymnastics Club 3A 9 Jr B 9.050 7 8.650 9 8.400 12T 9.050 5 35.150 9
2013-04-19 2013 Region 5 Level 8 Regional Championships Naperville Gymnastics Club 02A, 02B 8 Junior B 9.350 10 9.650 4T 9.100 27 9.400 12 37.500 7
2013-03-22 2013 Illinois Level 8, 9, 10 State Championships Naperville Gymnastics Club All 8 Jr.B 9.225 10 9.650 1 8.700 24 9.325 15 36.900 10
2013-03-01 Flip'r Invite 2013 Naperville Gymnastics Club 6 8 Jr 9.500 1 9.400 1 9.000 2 9.250 2 37.150 1
2013-02-08 IGI Chicago Style Gymnastics Meet Naperville Gymnastics Club 432 8 12 & Under 8.875 13 9.575 4T 9.550 3T 9.225 7T 37.225 5
2013-02-01 World Class Gateway Challenge Naperville Gymnastics Club 3A 8 11 & Under 8.750 4 8.750 5 8.150 7 9.450 2 35.100 3
2013-01-11 Circle Of Stars Naperville Gymnastics Club 8 11 & under 8.000 7 9.300 2 9.325 1 8.925 5 35.550 3
2012-12-13 2012 Hawaiin Pineapple Classic Naperville Gymnastics Club B8 8 ages 10-11 8.600 3 8.750 4 9.300 1 9.000 4 35.650 1
2012-11-09 2012 Illinois Judges Cup Naperville Gymnastics Club 2A 8 8-12 8.525 7 8.550 5 8.650 6 8.750 10 34.475 7
2012-11-03 Phyllis Matras Invitational Naperville Gymnastics Club All 8 8-15 8.675 1 9.425 2 8.475 3 9.100 1 35.675 1
2012-03-16 2012 Illinois Level 6, 7 State Championships Naperville Gymnastics Club 6 7 ChildB 9.450 9T 8.575 22 8.350 24 9.500 3 35.875 20
2012-03-09 Flip r Invite Naperville Gymnastics Club 7 Jr 9.600 2 9.050 10 9.475 2 9.475 6 37.600 1
2012-02-18 BIG Dream Classic 2012 Naperville Gymnastics Club 2B 7 Junior A 9.250 5 9.050 3T 9.225 6T 9.550 2 37.075 3
2012-02-10 IGI Chicago Style Gymnastics Naperville Gymnastics Club 133 7 11 & Under 9.325 8 9.475 2T 9.150 14 9.500 3 37.450 2
2012-01-18 Bravo Classic Naperville Gymnastics Club 8A 7 7-10 9.450 3 9.200 4 8.575 11 9.425 2 36.650 5
2012-01-06 2012 St. Jude Invite Naperville Gymnastics Club 2 7 Child 9.450 2 8.700 11 9.000 7 9.500 2 36.650 5
2011-12-15 2011 Hawaiian Pineapple Classic Naperville Gymnastics Club 7A 7 1-10 9.200 1 8.700 9 8.750 7 9.450 3T 36.100 3T
2011-11-11 2011 Illinois Judges Cup Naperville Gymnastics Club 1A 7 7-10 9.200 4 7.400 9 8.575 7 9.200 3 34.375 5
2011-06-03 2011 USA Gymnastics Open Championships Naperville Gymnastics Club 5 5 Jr A 9.025 6 9.375 10 8.800 13 9.450 5T 36.650 10
2011-04-01 2011 Illinois Level 5 State Meet Naperville Gymnastics Club 1 5 Youth.B 9.225 5 9.500 7 9.325 6 9.550 2 37.600 3
2011-03-04 Flip'r Meet Naperville Gymnastics Club 6 5 9 & under 8.950 8 9.000 9 9.375 4 9.100 7 36.425 5
2011-02-18 2011 The Great Western Invitational Naperville Gymnastics Club 3 5 9-10B 9.000 6 9.350 5 9.250 4 9.350 3 36.950 3
2011-02-04 Gateway Challenge Naperville Gymnastics Club 1B 5 9 8.750 2 9.025 6T 9.325 2 9.350 4T 36.450 3
2011-01-21 Bravo Classic Naperville Gymnastics Club 7B 5 9 8.400 8 9.125 8 7.800 16 9.250 5 34.575 10
2011-01-07 JVDB Gymnastics Spring HIll Invite Naperville Gymnastics Club 5 7-9 8.350 6 8.125 11 7.975 13 8.900 6 33.350 9
2010-12-17 2010 Hawaiian Pineapple Classic Naperville Gymnastics Club 8B 5 9 9.150 3 8.450 9 8.700 13 9.000 5 35.300 6
2010-12-10 2010 Illinois Level 4, 5 State Meet Naperville Gymnastics Club 7A 5 Child 8.725 10 8.350 21 8.400 25 8.650 21 34.125 23
2010-11-19 Thanksgiving Classic Naperville Gymnastics Club 6 5 Jr 8.800 8 8.375 16 9.350 3 8.900 7 35.425 9
2010-11-12 North Judges Cup Naperville Gymnastics Club 5B 5 9yrs. 8.900 7 8.500 14 9.250 2 8.900 8 35.550 5
2010-03-26 2010 Illinois Level 4 State Championships Naperville Gymnastics Club 4 Youth.E 8.900 26 9.400 10 9.050 11 9.275 7 36.625 12
Click here to view our personalized
"Celebrate Your Season"
2018-19 Collection

www.lazysuits.com